Time;durP1;ratioP1;P1;durP2;ratioP2;P2;SDS_P1;SDS_P2;PMS_P1;PMS_P2;Temp;Humidity;BMP_temperature;BMP_pressure;BME280_temperature;BME280_humidity;BME280_pressure;Samples;Min_cycle;Max_cycle;Signal;HPM_P1;HPM_P2
2021/12/05 00:19:31;;;;;;;1.87;1.40;;;2.00;96.30;;;;;;4859498;29;20790;-76
2021/12/05 00:22:03;;;;;;;1.50;1.40;;;1.90;96.30;;;;;;4859212;29;20458;-76
2021/12/05 00:24:33;;;;;;;2.37;2.17;;;1.90;96.30;;;;;;4858218;29;20995;-76
2021/12/05 00:27:06;;;;;;;3.00;2.23;;;1.80;96.30;;;;;;4859185;29;20491;-76
2021/12/05 00:38:18;;;;;;;1.60;1.50;;;1.90;96.30;;;;;;4878987;29;20458;-76
2021/12/05 00:41:07;;;;;;;2.00;1.67;;;1.90;96.30;;;;;;4880970;29;20476;-75
2021/12/05 00:44:12;;;;;;;1.83;1.73;;;1.80;96.30;;;;;;4881172;29;20406;-75
2021/12/05 00:52:17;;;;;;;1.90;1.80;;;1.80;96.30;;;;;;4880976;29;20437;-75
2021/12/05 00:57:39;;;;;;;2.27;2.07;;;1.70;96.30;;;;;;4880952;29;20436;-75
2021/12/05 05:02:35;;;;;;;4.57;2.33;;;1.30;96.30;;;;;;4859427;29;20498;-76
2021/12/05 05:05:01;;;;;;;2.67;1.90;;;1.30;96.30;;;;;;4862472;29;20446;-76
2021/12/05 05:07:28;;;;;;;3.40;2.10;;;1.30;96.30;;;;;;4861895;29;20198;-76
2021/12/05 05:10:01;;;;;;;7.00;2.57;;;1.20;96.30;;;;;;4862920;29;20185;-77
2021/12/05 05:12:26;;;;;;;5.87;2.57;;;1.30;96.30;;;;;;4844540;29;20463;-76
2021/12/05 05:14:53;;;;;;;4.30;2.07;;;1.30;96.30;;;;;;4844163;29;20444;-76
2021/12/05 05:17:19;;;;;;;4.83;2.50;;;1.20;96.30;;;;;;4843185;29;20582;-75
2021/12/05 05:19:49;;;;;;;4.50;2.47;;;1.30;96.30;;;;;;4843630;29;20443;-76
2021/12/05 05:48:44;;;;;;;2.80;2.23;;;1.20;96.30;;;;;;4879765;29;20889;-76
2021/12/05 05:51:10;;;;;;;5.63;1.90;;;1.10;96.30;;;;;;4879205;29;20457;-76
2021/12/05 05:53:37;;;;;;;5.60;2.83;;;1.10;96.30;;;;;;4879414;29;20466;-76
2021/12/05 05:56:04;;;;;;;4.30;1.60;;;1.10;96.30;;;;;;4878734;29;20919;-76
2021/12/05 05:58:49;;;;;;;5.03;1.83;;;1.10;96.30;;;;;;4880068;29;20422;-76
2021/12/05 06:04:01;;;;;;;1.77;1.03;;;1.10;96.30;;;;;;4885895;29;20486;-76
2021/12/05 06:06:27;;;;;;;6.40;1.77;;;1.10;96.30;;;;;;4879491;29;20419;-76
2021/12/05 06:08:53;;;;;;;4.27;2.53;;;1.20;96.30;;;;;;4879684;29;20473;-76
2021/12/05 06:11:19;;;;;;;3.00;1.73;;;1.20;96.30;;;;;;4879537;29;20442;-76
2021/12/05 06:13:46;;;;;;;4.17;2.10;;;1.20;96.30;;;;;;4878312;29;20181;-76
2021/12/05 06:16:13;;;;;;;5.73;2.10;;;1.20;96.30;;;;;;4879379;29;20205;-76
2021/12/05 06:18:39;;;;;;;2.67;2.10;;;1.20;96.30;;;;;;4878293;29;20421;-76
2021/12/05 06:21:06;;;;;;;3.50;1.57;;;1.20;96.30;;;;;;4879314;29;20462;-77
2021/12/05 06:23:33;;;;;;;3.40;1.60;;;1.20;96.30;;;;;;4878194;29;20182;-76
2021/12/05 06:25:59;;;;;;;7.80;2.30;;;1.20;96.30;;;;;;4877897;29;20558;-76
2021/12/05 06:28:36;;;;;;;1.83;1.60;;;1.10;96.30;;;;;;4879324;29;20724;-76
2021/12/05 06:31:17;;;;;;;11.23;1.83;;;1.10;96.30;;;;;;4879250;29;20448;-76
2021/12/05 06:41:59;;;;;;;3.33;1.87;;;1.10;96.30;;;;;;4879295;29;21005;-76
2021/12/05 06:47:11;;;;;;;4.13;2.13;;;1.10;96.30;;;;;;4879047;29;20970;-76
2021/12/05 06:49:38;;;;;;;11.60;6.20;;;1.10;96.30;;;;;;4878934;29;20422;-76
2021/12/05 06:52:06;;;;;;;8.70;4.63;;;1.00;96.30;;;;;;4878878;29;20445;-76
2021/12/05 06:54:32;;;;;;;3.57;2.40;;;1.00;96.30;;;;;;4878661;29;20838;-77
2021/12/05 06:56:58;;;;;;;4.60;2.30;;;0.90;96.30;;;;;;4891712;29;20421;-76
2021/12/05 06:59:23;;;;;;;2.20;1.67;;;0.90;96.30;;;;;;4896401;29;20181;-76
2021/12/05 07:01:49;;;;;;;6.87;2.00;;;0.90;96.30;;;;;;4878733;29;20217;-76
2021/12/05 07:05:12;;;;;;;3.73;2.10;;;1.00;96.30;;;;;;4878771;29;20195;-76
2021/12/05 07:07:01;;;;;;;4.80;3.90;;;1.00;96.30;;;;;;4859069;29;20202;-76
2021/12/05 07:09:28;;;;;;;3.50;1.70;;;1.00;96.30;;;;;;4858883;29;20427;-76
2021/12/05 07:14:55;;;;;;;2.97;1.10;;;1.00;96.30;;;;;;4860383;29;20899;-76
2021/12/05 07:22:53;;;;;;;3.10;1.43;;;1.10;96.30;;;;;;4862839;29;20442;-76
2021/12/05 07:25:30;;;;;;;4.90;1.80;;;1.10;96.30;;;;;;4860981;29;20450;-76
2021/12/05 07:44:35;;;;;;;3.43;1.80;;;1.30;96.30;;;;;;4846043;29;20478;-76
2021/12/05 07:47:01;;;;;;;5.40;1.70;;;1.30;96.30;;;;;;4867083;29;20938;-76
2021/12/05 07:49:27;;;;;;;8.67;1.40;;;1.30;96.30;;;;;;4862230;29;20651;-76
2021/12/05 07:51:52;;;;;;;2.50;1.20;;;1.30;96.30;;;;;;4863375;29;20491;-75
2021/12/05 07:54:43;;;;;;;2.60;1.13;;;1.40;96.30;;;;;;4862252;29;20214;-75
2021/12/05 07:57:18;;;;;;;3.07;1.30;;;1.40;96.30;;;;;;4863201;29;20698;-75
2021/12/05 08:16:12;;;;;;;3.67;1.50;;;1.60;96.30;;;;;;4862801;29;20418;-74
2021/12/05 08:18:38;;;;;;;3.07;1.30;;;1.70;96.30;;;;;;4862976;29;20461;-74
2021/12/05 08:21:06;;;;;;;3.30;1.23;;;1.80;96.30;;;;;;4862746;29;20467;-73
2021/12/05 08:23:32;;;;;;;2.40;1.30;;;1.80;96.30;;;;;;4862907;29;20446;-74
2021/12/05 08:36:41;;;;;;;4.77;1.40;;;1.80;96.30;;;;;;4863689;29;20438;-73
2021/12/05 09:30:51;;;;;;;2.77;1.67;;;2.10;96.30;;;;;;4875069;29;20429;-73
2021/12/05 10:14:31;;;;;;;3.63;1.30;;;2.90;96.30;;;;;;4880773;29;20432;-73
2021/12/05 10:20:08;;;;;;;5.13;1.40;;;3.10;96.30;;;;;;4883429;29;20428;-73
2021/12/05 10:34:16;;;;;;;4.93;1.77;;;4.30;96.30;;;;;;4886885;29;20398;-73
2021/12/05 10:36:42;;;;;;;3.43;1.60;;;5.00;96.30;;;;;;4881789;29;20422;-73
2021/12/05 10:39:19;;;;;;;2.90;1.60;;;5.30;96.30;;;;;;4887356;29;20529;-73
2021/12/05 10:44:12;;;;;;;8.67;2.03;;;4.90;96.30;;;;;;4874835;29;20467;-74
2021/12/05 10:46:39;;;;;;;8.07;2.80;;;4.70;96.30;;;;;;4885669;29;20184;-74
2021/12/05 10:49:11;;;;;;;6.93;1.73;;;4.60;96.30;;;;;;4883565;29;20446;-75
2021/12/05 10:51:40;;;;;;;4.93;1.80;;;4.70;96.30;;;;;;4886040;29;20443;-78
2021/12/05 10:54:10;;;;;;;3.50;1.10;;;5.00;96.30;;;;;;4886178;29;20414;-77
2021/12/05 10:56:49;;;;;;;4.70;1.70;;;5.40;96.30;;;;;;4885498;29;20410;-75
2021/12/05 10:59:21;;;;;;;5.07;1.47;;;5.40;96.30;;;;;;4884186;29;20453;-75
2021/12/05 11:01:49;;;;;;;3.93;1.83;;;4.90;96.30;;;;;;4883425;29;20468;-76
2021/12/05 11:04:28;;;;;;;3.50;1.10;;;4.30;96.30;;;;;;4883843;29;20470;-75
2021/12/05 11:06:56;;;;;;;4.90;1.10;;;4.10;96.30;;;;;;4882647;29;20429;-75
2021/12/05 11:09:26;;;;;;;4.10;1.87;;;4.00;96.30;;;;;;4882240;29;20445;-75
2021/12/05 11:11:57;;;;;;;7.70;2.00;;;4.00;96.30;;;;;;4884027;29;20430;-75
2021/12/05 11:14:29;;;;;;;9.13;2.00;;;3.80;96.30;;;;;;4879783;29;20505;-75
2021/12/05 11:17:06;;;;;;;7.10;1.60;;;3.60;96.30;;;;;;4888002;29;20921;-75
2021/12/05 11:19:35;;;;;;;6.23;2.17;;;3.40;96.30;;;;;;4870424;29;20420;-75
2021/12/05 11:22:10;;;;;;;7.47;1.53;;;3.30;96.30;;;;;;4883583;29;20465;-75
2021/12/05 11:24:43;;;;;;;6.20;1.60;;;3.10;96.30;;;;;;4892156;29;20413;-75
2021/12/05 11:27:13;;;;;;;4.80;1.30;;;3.00;96.30;;;;;;4890994;29;20433;-75
2021/12/05 11:29:51;;;;;;;4.67;1.90;;;3.00;96.30;;;;;;4891050;29;20793;-75
2021/12/05 11:32:27;;;;;;;10.20;2.20;;;3.10;96.30;;;;;;4881041;29;20453;-75
2021/12/05 11:34:53;;;;;;;4.70;1.50;;;3.10;96.30;;;;;;4882968;29;20418;-75
2021/12/05 11:37:18;;;;;;;2.10;1.57;;;3.20;96.30;;;;;;4882199;29;21077;-75
2021/12/05 11:39:46;;;;;;;8.27;2.07;;;3.40;96.30;;;;;;4884112;29;20181;-75
2021/12/05 11:42:18;;;;;;;4.30;1.50;;;3.70;96.30;;;;;;4884760;29;20245;-75
2021/12/05 11:44:46;;;;;;;4.47;2.03;;;3.70;96.30;;;;;;4882244;29;20438;-75
2021/12/05 11:47:19;;;;;;;3.20;1.77;;;3.80;96.30;;;;;;4880970;29;20462;-75
2021/12/05 11:49:44;;;;;;;3.80;1.83;;;3.80;96.30;;;;;;4881906;29;20421;-75
2021/12/05 11:52:11;;;;;;;5.20;1.97;;;3.80;96.30;;;;;;4886998;29;20453;-75
2021/12/05 11:54:45;;;;;;;7.70;2.13;;;3.70;96.30;;;;;;4877471;29;20208;-76
2021/12/05 11:57:24;;;;;;;7.10;2.00;;;3.50;96.30;;;;;;4879537;29;20449;-76
2021/12/05 11:59:57;;;;;;;8.07;2.40;;;3.40;96.30;;;;;;4884475;29;20425;-76
2021/12/05 12:02:30;;;;;;;3.87;1.60;;;3.20;96.30;;;;;;4880802;29;20425;-76
2021/12/05 12:05:17;;;;;;;5.43;1.73;;;3.20;96.30;;;;;;4883017;29;20531;-75
2021/12/05 12:07:53;;;;;;;7.77;1.90;;;3.20;96.30;;;;;;4878867;29;20446;-76
2021/12/05 12:15:59;;;;;;;2.13;1.67;;;3.40;96.30;;;;;;5462975;23;20485;-76
2021/12/05 12:18:30;;;;;;;4.03;2.20;;;3.50;96.30;;;;;;4888802;29;20433;-75
2021/12/05 12:21:02;;;;;;;4.83;2.17;;;3.50;96.30;;;;;;4896536;29;20488;-75
2021/12/05 12:23:28;;;;;;;4.90;1.93;;;3.60;96.30;;;;;;4895451;29;20425;-75
2021/12/05 12:25:57;;;;;;;8.07;1.80;;;3.60;96.30;;;;;;4878916;29;20797;-75
2021/12/05 12:28:23;;;;;;;5.23;1.70;;;3.50;96.30;;;;;;4874504;29;20189;-75
2021/12/05 12:30:56;;;;;;;3.80;1.80;;;3.60;96.30;;;;;;4896249;29;20556;-75
2021/12/05 12:33:35;;;;;;;4.30;1.87;;;3.70;96.30;;;;;;4888802;29;20658;-75
2021/12/05 12:36:02;;;;;;;3.47;1.63;;;3.70;96.30;;;;;;4862061;29;20415;-76
2021/12/05 12:38:31;;;;;;;8.10;1.97;;;3.70;96.30;;;;;;4861408;29;20959;-75
2021/12/05 12:41:03;;;;;;;7.40;2.10;;;3.70;96.30;;;;;;4878776;29;20525;-75
2021/12/05 12:43:53;;;;;;;6.10;2.07;;;3.60;96.30;;;;;;4880028;29;20458;-75
2021/12/05 12:46:18;;;;;;;4.97;2.63;;;3.40;96.30;;;;;;4880909;29;20941;-75
2021/12/05 12:48:44;;;;;;;6.00;1.73;;;3.50;96.30;;;;;;4881093;29;20482;-74
2021/12/05 12:51:37;;;;;;;4.43;2.40;;;3.40;96.30;;;;;;4880918;29;20262;-74
2021/12/05 12:54:25;;;;;;;6.37;1.90;;;3.30;96.30;;;;;;4866666;29;21057;-74
2021/12/05 12:57:03;;;;;;;8.00;2.20;;;3.10;96.30;;;;;;4868973;29;20438;-74
2021/12/05 12:59:34;;;;;;;7.00;2.53;;;3.00;96.30;;;;;;4879629;29;20426;-74
2021/12/05 13:10:32;;;;;;;8.83;2.50;;;2.90;96.30;;;;;;4862304;29;20474;-75
2021/12/05 13:13:10;;;;;;;7.60;1.90;;;2.80;96.30;;;;;;4862138;29;20457;-75
2021/12/05 13:15:38;;;;;;;8.50;2.37;;;2.80;96.30;;;;;;4862029;29;20411;-75
2021/12/05 13:18:28;;;;;;;4.80;2.27;;;2.90;96.30;;;;;;4860601;29;20868;-75
2021/12/05 13:21:02;;;;;;;4.80;2.10;;;2.90;96.30;;;;;;4871617;29;20488;-75
2021/12/05 13:23:32;;;;;;;6.97;2.63;;;3.00;96.30;;;;;;4880292;29;20395;-75
2021/12/05 13:26:19;;;;;;;6.40;2.00;;;3.00;96.30;;;;;;4879352;29;20423;-75
2021/12/05 13:28:48;;;;;;;5.07;1.80;;;2.80;96.30;;;;;;4888067;29;20449;-75
2021/12/05 13:31:28;;;;;;;6.53;2.10;;;2.70;96.30;;;;;;4898842;29;20487;-75
2021/12/05 13:34:22;;;;;;;3.30;1.60;;;2.70;96.30;;;;;;4882702;29;20429;-75
2021/12/05 13:36:59;;;;;;;3.97;1.77;;;2.60;96.30;;;;;;4879655;29;20941;-75
2021/12/05 13:40:00;;;;;;;4.83;1.47;;;2.60;96.30;;;;;;4880099;29;20402;-76
2021/12/05 13:42:37;;;;;;;2.47;1.50;;;2.60;96.30;;;;;;4871614;29;20478;-75
2021/12/05 13:45:03;;;;;;;5.73;1.90;;;2.50;96.30;;;;;;4871495;29;20421;-75
2021/12/05 13:47:32;;;;;;;5.83;2.10;;;2.50;96.30;;;;;;4877497;29;20804;-75
2021/12/05 13:50:16;;;;;;;9.47;1.90;;;2.40;96.30;;;;;;4879970;29;20904;-75
2021/12/05 13:52:42;;;;;;;4.40;2.30;;;2.40;96.30;;;;;;4879865;29;20414;-75
2021/12/05 13:55:30;;;;;;;5.40;1.70;;;2.40;96.30;;;;;;4896920;29;20484;-76
2021/12/05 13:58:20;;;;;;;7.40;2.63;;;2.40;96.30;;;;;;4896960;29;20453;-76
2021/12/05 14:00:50;;;;;;;4.20;1.93;;;2.30;96.30;;;;;;4859683;29;20510;-76
2021/12/05 14:03:53;;;;;;;6.63;1.80;;;2.30;96.30;;;;;;4863884;29;20426;-75
2021/12/05 14:06:37;;;;;;;3.60;2.20;;;2.20;96.30;;;;;;4884099;29;20414;-76
2021/12/05 14:09:15;;;;;;;4.40;2.43;;;2.20;96.30;;;;;;4888703;29;20436;-75
2021/12/05 14:11:46;;;;;;;7.60;2.60;;;2.20;96.30;;;;;;4898332;29;20488;-75
2021/12/05 14:14:13;;;;;;;6.10;3.07;;;2.20;96.30;;;;;;4868571;29;20534;-75
2021/12/05 14:16:41;;;;;;;8.10;2.63;;;2.20;96.30;;;;;;4859328;29;20461;-75
2021/12/05 14:19:12;;;;;;;6.50;2.83;;;2.20;96.30;;;;;;4860834;29;20407;-76
2021/12/05 14:21:41;;;;;;;7.87;4.37;;;2.20;96.30;;;;;;4885514;29;20487;-75
2021/12/05 14:24:08;;;;;;;7.20;3.17;;;2.20;96.30;;;;;;4887188;29;20913;-75
2021/12/05 14:26:38;;;;;;;7.00;2.70;;;2.10;96.30;;;;;;4887373;29;20529;-75
2021/12/05 14:29:11;;;;;;;6.43;3.03;;;2.20;96.30;;;;;;4885382;29;20481;-75
2021/12/05 14:31:43;;;;;;;9.70;3.57;;;2.10;96.30;;;;;;4880829;29;20797;-75
2021/12/05 14:34:10;;;;;;;6.77;2.90;;;2.10;96.30;;;;;;4878518;29;20469;-75
2021/12/05 14:36:47;;;;;;;4.60;2.57;;;2.00;96.30;;;;;;4881790;29;20461;-75
2021/12/05 14:39:18;;;;;;;4.47;2.57;;;2.00;96.30;;;;;;4883375;29;20450;-75
2021/12/05 14:41:46;;;;;;;4.03;2.33;;;1.90;96.30;;;;;;4877743;29;20482;-75
2021/12/05 14:44:13;;;;;;;5.63;2.87;;;1.90;96.30;;;;;;4885730;29;20933;-75
2021/12/05 14:46:52;;;;;;;5.40;2.60;;;1.80;96.30;;;;;;4877721;29;20426;-75
2021/12/05 14:49:20;;;;;;;3.93;2.20;;;1.80;96.30;;;;;;4878660;29;20445;-75
2021/12/05 14:51:46;;;;;;;4.97;2.17;;;1.70;96.30;;;;;;4881785;29;20435;-75
2021/12/05 14:54:19;;;;;;;8.77;3.50;;;1.70;96.30;;;;;;4880585;29;20438;-75
2021/12/05 14:56:45;;;;;;;5.77;2.10;;;1.70;96.30;;;;;;4875120;29;20193;-75
2021/12/05 14:59:14;;;;;;;4.67;2.97;;;1.70;96.30;;;;;;4878946;29;20430;-75
2021/12/05 15:01:44;;;;;;;5.90;2.73;;;1.60;96.30;;;;;;4880608;29;20217;-75
2021/12/05 15:04:10;;;;;;;5.83;2.70;;;1.60;96.30;;;;;;4881685;29;20445;-75
2021/12/05 15:06:43;;;;;;;3.53;1.87;;;1.60;96.30;;;;;;4880507;29;20473;-75
2021/12/05 15:09:20;;;;;;;5.47;2.63;;;1.50;96.30;;;;;;4880155;29;20426;-75
2021/12/05 15:11:56;;;;;;;14.30;2.90;;;1.50;96.30;;;;;;4877863;29;20454;-75
2021/12/05 15:14:21;;;;;;;9.43;3.00;;;1.50;96.30;;;;;;4877722;29;20454;-75
2021/12/05 15:16:52;;;;;;;7.17;2.73;;;1.50;96.30;;;;;;4877128;29;20449;-75
2021/12/05 15:19:18;;;;;;;8.90;4.10;;;1.40;96.30;;;;;;4859829;29;20182;-75
2021/12/05 15:21:43;;;;;;;5.03;2.60;;;1.40;96.30;;;;;;4858587;29;21002;-75
2021/12/05 15:24:15;;;;;;;5.50;1.57;;;1.30;96.30;;;;;;4859925;29;20186;-75
2021/12/05 15:26:40;;;;;;;4.10;2.17;;;1.30;96.30;;;;;;4859644;29;20231;-75
2021/12/05 15:29:06;;;;;;;10.87;2.43;;;1.30;96.30;;;;;;4859908;29;20411;-75
2021/12/05 15:31:37;;;;;;;8.80;2.70;;;1.20;96.30;;;;;;4859800;29;20282;-75
2021/12/05 15:34:36;;;;;;;7.00;3.80;;;1.20;96.30;;;;;;4859859;29;20722;-75
2021/12/05 15:37:12;;;;;;;4.23;2.57;;;1.20;96.30;;;;;;4859013;29;20435;-75
2021/12/05 15:39:42;;;;;;;10.23;2.93;;;1.10;96.30;;;;;;4858559;29;20426;-75
2021/12/05 15:42:23;;;;;;;8.47;3.20;;;1.10;96.30;;;;;;4858357;29;20522;-75
2021/12/05 15:44:51;;;;;;;6.50;2.43;;;1.10;96.30;;;;;;4862382;29;20758;-75
2021/12/05 15:47:24;;;;;;;7.77;2.83;;;1.10;96.30;;;;;;4876736;29;20446;-74
2021/12/05 15:50:04;;;;;;;13.83;3.67;;;1.00;96.30;;;;;;4876826;29;20517;-75
2021/12/05 15:52:47;;;;;;;11.83;4.70;;;1.10;96.30;;;;;;4878133;29;20440;-74
2021/12/05 15:55:16;;;;;;;10.20;4.50;;;1.10;96.30;;;;;;4877029;29;20649;-74
2021/12/05 15:57:46;;;;;;;6.97;4.50;;;1.10;96.30;;;;;;4877805;29;20418;-74
2021/12/05 16:00:25;;;;;;;12.13;5.33;;;1.00;96.30;;;;;;4878046;29;20430;-74
2021/12/05 16:03:10;;;;;;;10.80;6.40;;;1.00;96.30;;;;;;4884446;29;20426;-75
2021/12/05 16:05:38;;;;;;;11.20;5.80;;;1.00;96.30;;;;;;4859712;29;20411;-74
2021/12/05 16:08:11;;;;;;;13.40;6.80;;;0.90;96.30;;;;;;4858398;29;20426;-74
2021/12/05 16:10:39;;;;;;;12.70;6.20;;;0.90;96.30;;;;;;4863155;29;20916;-75
2021/12/05 16:13:15;;;;;;;22.27;10.37;;;0.80;96.30;;;;;;4861811;29;20923;-75
2021/12/05 16:15:47;;;;;;;15.70;7.83;;;0.70;96.30;;;;;;4878918;29;20429;-75
2021/12/05 16:18:14;;;;;;;10.13;5.23;;;0.70;96.30;;;;;;4881077;29;20539;-75
2021/12/05 16:20:44;;;;;;;11.93;5.00;;;0.70;96.30;;;;;;4880256;29;20470;-75
2021/12/05 16:23:16;;;;;;;10.00;4.10;;;0.70;96.30;;;;;;4877779;29;21052;-74
2021/12/05 16:25:57;;;;;;;10.00;5.30;;;0.70;96.30;;;;;;4902381;29;20429;-74
2021/12/05 16:28:30;;;;;;;8.87;4.13;;;0.70;96.30;;;;;;4881773;29;20494;-74
2021/12/05 16:31:00;;;;;;;9.43;4.90;;;0.70;96.30;;;;;;4879744;29;20450;-74
2021/12/05 16:33:29;;;;;;;9.67;3.90;;;0.70;96.30;;;;;;4881117;29;20406;-74
2021/12/05 16:35:55;;;;;;;8.40;4.33;;;0.70;96.30;;;;;;4878613;29;20434;-75
2021/12/05 16:38:36;;;;;;;12.53;4.30;;;0.70;96.30;;;;;;4880725;29;20417;-74
2021/12/05 16:41:18;;;;;;;12.53;4.07;;;0.70;96.30;;;;;;4880169;29;20478;-75
2021/12/05 16:43:54;;;;;;;13.17;5.20;;;0.80;96.30;;;;;;4881055;29;20428;-75
2021/12/05 16:46:54;;;;;;;8.90;4.83;;;0.80;96.30;;;;;;4879513;29;20414;-75
2021/12/05 16:49:24;;;;;;;10.50;3.67;;;0.70;96.30;;;;;;4879989;29;20426;-75
2021/12/05 16:51:55;;;;;;;5.73;3.40;;;0.70;96.30;;;;;;4880907;29;20474;-74
2021/12/05 16:54:25;;;;;;;11.10;3.23;;;0.70;96.30;;;;;;4880368;29;20437;-74
2021/12/05 16:57:16;;;;;;;17.43;4.60;;;0.70;96.30;;;;;;4879783;29;20840;-74
2021/12/05 16:59:51;;;;;;;6.20;3.07;;;0.80;96.30;;;;;;4882077;29;20429;-75
2021/12/05 17:02:27;;;;;;;10.57;2.47;;;0.70;96.30;;;;;;4879077;29;20476;-74
2021/12/05 17:05:05;;;;;;;8.70;3.00;;;0.70;96.30;;;;;;4879320;29;20417;-74
2021/12/05 17:07:38;;;;;;;10.23;2.80;;;0.70;96.30;;;;;;4873100;29;20406;-74
2021/12/05 17:10:06;;;;;;;6.57;3.27;;;0.70;96.30;;;;;;4867300;29;20414;-74
2021/12/05 17:12:33;;;;;;;7.37;3.70;;;0.70;96.30;;;;;;4869328;29;20998;-74
2021/12/05 17:15:09;;;;;;;8.60;3.77;;;0.60;96.30;;;;;;4877461;29;20430;-75
2021/12/05 17:17:35;;;;;;;3.40;2.13;;;0.60;96.30;;;;;;4874858;29;20490;-74
2021/12/05 17:20:25;;;;;;;10.03;2.97;;;0.50;96.30;;;;;;4868651;29;20504;-75
2021/12/05 17:23:04;;;;;;;6.17;2.70;;;0.40;96.30;;;;;;4861759;29;20175;-74
2021/12/05 17:25:35;;;;;;;5.47;2.50;;;0.40;96.30;;;;;;4861979;29;20400;-75
2021/12/05 17:28:03;;;;;;;12.60;2.70;;;0.30;96.30;;;;;;4873021;29;20415;-74
2021/12/05 17:30:29;;;;;;;5.47;3.13;;;0.30;96.30;;;;;;4876761;29;20824;-75
2021/12/05 17:32:54;;;;;;;5.60;2.40;;;0.30;96.30;;;;;;4878045;29;20480;-74
2021/12/05 17:35:21;;;;;;;9.30;4.53;;;0.30;96.30;;;;;;4883677;29;20641;-73
2021/12/05 17:37:47;;;;;;;6.93;4.43;;;0.20;96.30;;;;;;4878028;29;20244;-74
2021/12/05 17:40:14;;;;;;;6.70;3.63;;;0.20;96.30;;;;;;4879778;29;20410;-73
2021/12/05 17:42:41;;;;;;;10.50;4.40;;;0.10;96.30;;;;;;4880132;29;20426;-73
2021/12/05 17:45:08;;;;;;;7.47;4.40;;;0.10;96.30;;;;;;4878690;29;20407;-73
2021/12/05 17:47:35;;;;;;;7.63;2.57;;;0.10;96.30;;;;;;4879732;29;20811;-73
2021/12/05 17:50:05;;;;;;;10.70;3.40;;;0.10;96.30;;;;;;4878498;29;20451;-73
2021/12/05 17:52:32;;;;;;;10.53;3.10;;;0.10;96.30;;;;;;4879634;29;20434;-74
2021/12/05 17:55:05;;;;;;;7.60;2.80;;;0.10;96.30;;;;;;4880058;29;20904;-73
2021/12/05 17:57:40;;;;;;;5.80;2.20;;;0.10;96.30;;;;;;4887833;29;20500;-73
2021/12/05 18:00:34;;;;;;;6.53;2.90;;;0.10;96.30;;;;;;4879408;29;20509;-74
2021/12/05 18:03:01;;;;;;;8.33;2.87;;;0.00;96.30;;;;;;4887705;29;20426;-73
2021/12/05 18:05:37;;;;;;;3.60;2.10;;;0.00;96.30;;;;;;4881474;29;20466;-73
2021/12/05 18:08:09;;;;;;;15.70;5.20;;;0.00;96.30;;;;;;4884049;29;20429;-74
2021/12/05 18:10:38;;;;;;;10.80;5.87;;;0.00;96.30;;;;;;4879114;29;20450;-73
2021/12/05 18:13:09;;;;;;;13.83;5.10;;;0.10;96.30;;;;;;4882209;29;20421;-73
2021/12/05 18:15:36;;;;;;;6.03;3.70;;;0.10;96.30;;;;;;4883938;29;20425;-73
2021/12/05 18:18:05;;;;;;;6.57;3.73;;;0.10;96.30;;;;;;4877530;29;20823;-73
2021/12/05 18:20:34;;;;;;;9.50;3.03;;;0.20;96.30;;;;;;4882378;29;20450;-73
2021/12/05 18:23:03;;;;;;;7.93;2.60;;;0.20;96.30;;;;;;4886694;29;20433;-74
2021/12/05 18:25:30;;;;;;;6.60;3.00;;;0.20;96.30;;;;;;4878818;29;20416;-74
2021/12/05 18:27:56;;;;;;;12.07;4.63;;;0.30;96.30;;;;;;4885515;29;20434;-75
2021/12/05 19:07:03;;;;;;;9.27;3.90;;;0.60;96.30;;;;;;4879922;29;20464;-77
2021/12/05 19:22:43;;;;;;;6.93;3.30;;;0.60;96.30;;;;;;5223732;23;20504;-76
2021/12/05 19:25:18;;;;;;;7.23;4.17;;;0.70;96.30;;;;;;4898385;29;20430;-76
2021/12/05 19:27:46;;;;;;;7.33;4.00;;;0.60;96.30;;;;;;4905255;29;20416;-77
2021/12/05 19:30:16;;;;;;;6.20;3.23;;;0.60;96.30;;;;;;4893273;29;20490;-76
2021/12/05 19:32:41;;;;;;;5.87;3.33;;;0.50;96.30;;;;;;4866338;29;20431;-76
2021/12/05 19:35:08;;;;;;;8.40;3.80;;;0.50;96.30;;;;;;4884880;29;20429;-76
2021/12/05 19:37:34;;;;;;;10.70;5.77;;;0.40;96.30;;;;;;4879601;29;20178;-76
2021/12/05 19:40:00;;;;;;;11.07;5.60;;;0.40;96.30;;;;;;4876944;29;20949;-76
2021/12/05 19:42:26;;;;;;;10.27;6.10;;;0.30;96.30;;;;;;4876231;29;20686;-76
2021/12/05 19:44:54;;;;;;;11.07;5.60;;;0.30;96.30;;;;;;4882925;29;20417;-76
2021/12/05 19:47:21;;;;;;;11.43;5.53;;;0.20;96.30;;;;;;4884412;29;20249;-77
2021/12/05 19:49:47;;;;;;;12.20;5.47;;;0.20;96.30;;;;;;4884448;29;20517;-76
2021/12/05 19:52:14;;;;;;;10.30;5.30;;;0.20;96.30;;;;;;4890230;29;20454;-76
2021/12/05 19:54:41;;;;;;;10.03;5.57;;;0.30;96.30;;;;;;4887044;29;20863;-77
2021/12/05 19:57:07;;;;;;;8.73;5.70;;;0.20;96.30;;;;;;4890411;29;20457;-76
2021/12/05 19:59:32;;;;;;;8.53;5.07;;;0.10;96.30;;;;;;4881214;29;20478;-77
2021/12/05 20:01:59;;;;;;;8.43;4.37;;;0.20;96.30;;;;;;4884304;29;21001;-77
2021/12/05 20:04:24;;;;;;;8.20;4.60;;;0.20;96.30;;;;;;4884955;29;20180;-76
2021/12/05 20:06:51;;;;;;;8.70;5.23;;;0.30;96.30;;;;;;4892072;29;20429;-76
2021/12/05 20:09:19;;;;;;;11.60;4.80;;;0.30;96.30;;;;;;4888465;29;20180;-77
2021/12/05 20:11:46;;;;;;;8.60;4.20;;;0.30;96.30;;;;;;4879083;29;20438;-77
2021/12/05 20:14:11;;;;;;;9.37;4.80;;;0.30;96.30;;;;;;4873099;29;20422;-77
2021/12/05 20:16:38;;;;;;;8.20;4.60;;;0.20;96.30;;;;;;4887468;29;20488;-77
2021/12/05 20:19:06;;;;;;;6.17;4.23;;;0.30;96.30;;;;;;4878831;29;20189;-77
2021/12/05 20:21:35;;;;;;;7.57;3.80;;;0.20;96.30;;;;;;4896615;29;20510;-77
2021/12/05 20:24:02;;;;;;;5.03;3.10;;;0.20;96.30;;;;;;4875050;29;20446;-77
2021/12/05 20:26:28;;;;;;;6.03;3.60;;;0.30;96.30;;;;;;4885206;29;20473;-77
2021/12/05 20:28:55;;;;;;;7.63;3.57;;;0.30;96.30;;;;;;4896166;29;20468;-77
2021/12/05 20:31:22;;;;;;;5.23;3.30;;;0.30;96.30;;;;;;4882935;29;20442;-76
2021/12/05 20:33:49;;;;;;;9.50;2.83;;;0.30;96.30;;;;;;4873874;29;20453;-76
2021/12/05 20:36:15;;;;;;;4.83;2.83;;;0.20;96.30;;;;;;4887433;29;20805;-77
2021/12/05 20:38:42;;;;;;;5.90;3.33;;;0.20;96.30;;;;;;4866405;29;20425;-76
2021/12/05 20:41:08;;;;;;;5.17;2.73;;;0.20;96.30;;;;;;4891352;29;20710;-76
2021/12/05 20:43:34;;;;;;;9.40;3.00;;;0.20;96.30;;;;;;4894560;29;20418;-76
2021/12/05 20:46:00;;;;;;;4.77;2.90;;;0.20;96.30;;;;;;4886031;29;20425;-76
2021/12/05 20:48:27;;;;;;;6.37;2.90;;;0.20;96.30;;;;;;4894673;29;20458;-77
2021/12/05 20:50:53;;;;;;;6.50;3.40;;;0.20;96.30;;;;;;4892904;29;20264;-76
2021/12/05 20:53:21;;;;;;;9.77;2.80;;;0.20;96.30;;;;;;4882991;29;20461;-77
2021/12/05 20:55:47;;;;;;;8.33;3.90;;;0.20;96.30;;;;;;4885613;29;20426;-77
2021/12/05 20:58:15;;;;;;;5.63;3.43;;;0.20;96.30;;;;;;4880438;29;20418;-77
2021/12/05 21:00:48;;;;;;;9.60;4.00;;;0.20;96.30;;;;;;4872159;29;20505;-77
2021/12/05 21:03:15;;;;;;;12.83;5.23;;;0.20;96.30;;;;;;4866478;29;21043;-78
2021/12/05 21:05:43;;;;;;;10.17;5.00;;;0.20;96.30;;;;;;4860950;29;20427;-76
2021/12/05 21:08:10;;;;;;;7.93;3.70;;;0.10;96.30;;;;;;4862268;29;20443;-76
2021/12/05 21:10:40;;;;;;;5.27;3.63;;;0.20;96.30;;;;;;4862219;29;20939;-78
2021/12/05 21:13:08;;;;;;;5.23;3.57;;;0.10;96.30;;;;;;4862423;29;20459;-78
2021/12/05 21:15:35;;;;;;;5.57;3.40;;;0.10;96.30;;;;;;4861997;29;20447;-78
2021/12/05 21:18:00;;;;;;;6.27;3.30;;;0.10;96.30;;;;;;4861941;29;20423;-78
2021/12/05 21:20:27;;;;;;;7.77;3.23;;;0.10;96.30;;;;;;4860838;29;20518;-78
2021/12/05 21:22:54;;;;;;;6.87;3.13;;;0.10;96.30;;;;;;4860750;29;20190;-78
2021/12/05 21:25:19;;;;;;;5.43;2.87;;;0.10;96.30;;;;;;4862025;29;20411;-78
2021/12/05 21:27:46;;;;;;;11.63;2.90;;;0.10;96.30;;;;;;4861751;29;20423;-78
2021/12/05 21:30:19;;;;;;;7.90;3.43;;;0.10;96.30;;;;;;4861939;29;20214;-78
2021/12/05 21:32:45;;;;;;;8.70;3.33;;;0.10;96.30;;;;;;4861666;29;20422;-77
2021/12/05 21:35:13;;;;;;;6.17;3.33;;;0.10;96.30;;;;;;4868890;29;20435;-77
2021/12/05 21:37:40;;;;;;;7.03;3.10;;;0.10;96.30;;;;;;4861162;29;20179;-77
2021/12/05 21:40:09;;;;;;;11.03;3.53;;;0.10;96.30;;;;;;4875933;29;20415;-77
2021/12/05 21:42:35;;;;;;;8.23;3.17;;;0.10;96.30;;;;;;4861390;29;20447;-78
2021/12/05 21:45:00;;;;;;;7.37;3.50;;;0.20;96.30;;;;;;4875853;29;20452;-77
2021/12/05 21:47:26;;;;;;;9.90;4.30;;;0.30;96.30;;;;;;4860101;29;20510;-76
2021/12/05 21:49:51;;;;;;;7.43;4.30;;;0.30;96.30;;;;;;4861507;29;20554;-77
2021/12/05 21:52:19;;;;;;;6.03;3.47;;;0.30;96.30;;;;;;4861518;29;20202;-77
2021/12/05 21:54:45;;;;;;;3.70;2.73;;;0.30;96.30;;;;;;4861411;29;20178;-77
2021/12/05 21:57:11;;;;;;;4.20;2.80;;;0.30;96.30;;;;;;4861084;29;20419;-77
2021/12/05 21:59:37;;;;;;;7.80;3.20;;;0.30;96.30;;;;;;4861516;29;20904;-78
2021/12/05 22:02:03;;;;;;;10.73;3.77;;;0.20;96.30;;;;;;4861175;29;20266;-77
2021/12/05 22:04:29;;;;;;;8.50;3.80;;;0.20;96.30;;;;;;4861262;29;20175;-77
2021/12/05 22:06:57;;;;;;;7.00;3.83;;;0.20;96.30;;;;;;4859942;29;20501;-77
2021/12/05 22:09:23;;;;;;;8.00;3.03;;;0.20;96.30;;;;;;4861192;29;20407;-76
2021/12/05 22:11:48;;;;;;;7.97;3.87;;;0.20;96.30;;;;;;4860992;29;20510;-78
2021/12/05 22:14:14;;;;;;;6.97;2.80;;;0.20;96.30;;;;;;4859879;29;20182;-78
2021/12/05 22:16:39;;;;;;;7.43;3.83;;;0.30;96.30;;;;;;4860833;29;20170;-78
2021/12/05 22:19:07;;;;;;;7.17;3.53;;;0.30;96.30;;;;;;4859744;29;20616;-76